Time;durP1;ratioP1;P1;durP2;ratioP2;P2;SDS_P1;SDS_P2;PMS_P1;PMS_P2;Temp;Humidity;BMP_temperature;BMP_pressure;BME280_temperature;BME280_humidity;BME280_pressure;Samples;Min_cycle;Max_cycle;Signal;HPM_P1;HPM_P2
2024/04/13 00:02:15;;;;;;;4.07;1.88;;;;;;;19.70;54.39;102635.25;5401130;26;19991;-72
2024/04/13 00:04:40;;;;;;;4.75;2.00;;;;;;;19.62;54.15;102621.63;5402915;26;20473;-68
2024/04/13 00:07:06;;;;;;;5.20;1.98;;;;;;;19.78;54.21;102654.19;5402266;26;20038;-74
2024/04/13 00:09:31;;;;;;;6.57;2.10;;;;;;;19.72;54.33;102655.34;5402366;26;19991;-68
2024/04/13 00:11:56;;;;;;;3.83;1.83;;;;;;;19.73;54.40;102651.78;5399886;26;20003;-72
2024/04/13 00:14:22;;;;;;;5.10;2.20;;;;;;;19.81;54.27;102666.38;5402213;26;20017;-69
2024/04/13 00:16:47;;;;;;;4.10;1.98;;;;;;;19.76;54.17;102661.38;5401445;26;20209;-74
2024/04/13 00:19:12;;;;;;;4.10;2.00;;;;;;;19.78;53.93;102662.13;5402426;26;20047;-72
2024/04/13 00:21:39;;;;;;;4.77;2.27;;;;;;;19.81;54.28;102666.38;5401768;26;20004;-72
2024/04/13 00:24:05;;;;;;;3.95;1.85;;;;;;;19.75;54.17;102662.25;5401731;26;20213;-69
2024/04/13 00:26:32;;;;;;;3.53;1.70;;;;;;;19.76;54.30;102658.72;5402317;26;19991;-69
2024/04/13 00:28:58;;;;;;;3.58;1.52;;;;;;;19.65;54.35;102640.81;5401111;26;20247;-76
2024/04/13 00:31:24;;;;;;;3.40;1.73;;;;;;;19.78;53.93;102658.63;5395444;26;20003;-68
2024/04/13 00:33:49;;;;;;;4.13;2.20;;;;;;;19.77;54.14;102655.09;5402599;26;20433;-69
2024/04/13 00:36:14;;;;;;;4.07;2.03;;;;;;;19.62;54.31;102627.75;5402451;26;20023;-69
2024/04/13 00:38:40;;;;;;;3.55;1.88;;;;;;;19.66;54.32;102631.06;5402260;26;20006;-69
2024/04/13 00:41:05;;;;;;;3.55;1.92;;;;;;;19.70;54.06;102635.25;5403205;26;20319;-74
2024/04/13 00:43:31;;;;;;;4.65;1.60;;;;;;;19.76;54.07;102656.06;5401365;26;19998;-69
2024/04/13 00:45:56;;;;;;;4.57;2.00;;;;;;;19.71;54.18;102645.72;5401219;26;20072;-69
2024/04/13 00:48:24;;;;;;;3.85;1.90;;;;;;;19.62;54.05;102622.47;5403036;26;20065;-73
2024/04/13 00:50:58;;;;;;;6.70;2.70;;;;;;;19.67;54.02;102635.41;5401400;26;21121;-70
2024/04/13 00:53:24;;;;;;;4.47;2.08;;;;;;;19.76;53.76;102648.13;5401689;26;19992;-71
2024/04/13 00:55:53;;;;;;;3.65;1.83;;;;;;;19.69;53.88;102633.53;5399819;26;20403;-71
2024/04/13 00:58:25;;;;;;;3.63;1.90;;;;;;;19.72;53.98;102646.56;5401593;26;20011;-75
2024/04/13 01:00:51;;;;;;;4.88;2.05;;;;;;;19.64;53.97;102632.97;5402170;26;20000;-68
2024/04/13 01:03:17;;;;;;;3.97;1.80;;;;;;;19.68;53.91;102630.03;5400890;26;20288;-69
2024/04/13 01:05:43;;;;;;;3.83;1.98;;;;;;;19.62;53.97;102618.97;5399170;26;20042;-75
2024/04/13 01:08:09;;;;;;;4.40;2.00;;;;;;;19.73;54.10;102640.34;5403099;26;19996;-76
2024/04/13 01:10:34;;;;;;;6.00;2.03;;;;;;;19.68;53.78;102632.69;5400823;26;20004;-70
2024/04/13 01:13:00;;;;;;;4.20;2.00;;;;;;;19.70;54.08;102630.78;5401793;26;19992;-71
2024/04/13 01:15:27;;;;;;;4.25;2.00;;;;;;;19.60;53.88;102610.28;5395018;26;19991;-69
2024/04/13 01:17:53;;;;;;;3.10;1.60;;;;;;;19.60;53.85;102607.63;5401548;26;20003;-72
2024/04/13 01:20:18;;;;;;;4.40;2.05;;;;;;;19.56;54.18;102607.81;5401284;26;20345;-70
2024/04/13 01:22:45;;;;;;;4.07;2.05;;;;;;;19.61;53.64;102610.19;5399825;26;20037;-70
2024/04/13 01:25:13;;;;;;;3.70;1.80;;;;;;;19.64;53.97;102615.28;5401634;26;19995;-74
2024/04/13 01:27:39;;;;;;;4.00;1.85;;;;;;;19.58;53.98;102603.28;5401416;26;20001;-68
2024/04/13 01:30:09;;;;;;;4.97;2.08;;;;;;;19.59;53.63;102596.19;5400626;26;19992;-73
2024/04/13 01:32:34;;;;;;;5.47;2.00;;;;;;;19.68;53.83;102608.03;5399488;26;20036;-70
2024/04/13 01:35:13;;;;;;;3.60;1.90;;;;;;;19.66;53.66;102605.50;5400580;26;19992;-70
2024/04/13 01:37:40;;;;;;;3.92;2.08;;;;;;;19.67;54.10;102604.53;5375514;26;19992;-74
2024/04/13 01:40:06;;;;;;;3.88;1.88;;;;;;;19.59;53.59;102590.91;5399614;26;20006;-70
2024/04/13 01:42:32;;;;;;;4.07;2.10;;;;;;;19.56;54.02;102597.22;5400760;26;20002;-73
2024/04/13 01:44:57;;;;;;;3.88;1.88;;;;;;;19.53;53.81;102580.69;5400807;26;19992;-68
2024/04/13 01:47:22;;;;;;;3.92;1.90;;;;;;;19.57;54.01;102585.72;5400353;26;19991;-74
2024/04/13 01:49:48;;;;;;;5.18;2.03;;;;;;;19.56;54.05;102580.53;5401164;26;20003;-69
2024/04/13 01:52:13;;;;;;;4.15;1.88;;;;;;;19.65;53.86;102589.72;5401029;26;20037;-69
2024/04/13 01:54:39;;;;;;;3.92;1.98;;;;;;;19.64;53.84;102588.00;5398597;26;20805;-75
2024/04/13 01:57:04;;;;;;;4.45;2.00;;;;;;;19.61;53.70;102591.66;5397077;26;20089;-68
2024/04/13 01:59:30;;;;;;;5.20;2.47;;;;;;;19.64;53.53;102588.84;5399292;26;19996;-70
2024/04/13 02:01:55;;;;;;;4.35;2.22;;;;;;;19.47;53.90;102567.84;5398320;26;20000;-75
2024/04/13 02:04:20;;;;;;;4.07;1.90;;;;;;;19.64;53.51;102596.78;5400744;26;20011;-69
2024/04/13 02:06:45;;;;;;;5.05;2.10;;;;;;;19.61;54.14;102596.13;5400049;26;20464;-74
2024/04/13 02:09:13;;;;;;;5.03;2.10;;;;;;;19.28;53.76;102544.28;5398837;26;20039;-71
2024/04/13 02:11:38;;;;;;;4.07;2.13;;;;;;;19.45;53.75;102559.16;5400147;26;20611;-70
2024/04/13 02:14:04;;;;;;;4.75;2.30;;;;;;;19.64;53.91;102594.13;5400488;26;20010;-69
2024/04/13 02:16:29;;;;;;;5.45;2.38;;;;;;;19.58;53.95;102581.28;5400199;26;20705;-70
2024/04/13 02:18:55;;;;;;;4.35;2.17;;;;;;;19.57;53.90;102582.22;5398197;26;20072;-76
2024/04/13 02:21:20;;;;;;;4.32;2.17;;;;;;;19.60;54.04;102583.81;5399020;26;19996;-68
2024/04/13 02:23:46;;;;;;;4.20;2.20;;;;;;;19.43;53.73;102558.41;5398762;26;20030;-71
2024/04/13 02:26:11;;;;;;;3.88;2.05;;;;;;;19.54;54.02;102572.69;5400320;26;19999;-68
2024/04/13 02:28:36;;;;;;;4.55;2.00;;;;;;;19.57;53.74;102580.44;5399649;26;20000;-69
2024/04/13 02:31:02;;;;;;;5.18;2.20;;;;;;;19.54;53.96;102569.19;5399021;26;20465;-69
2024/04/13 02:33:27;;;;;;;4.50;2.00;;;;;;;19.61;53.85;102578.44;5399277;26;20000;-69
2024/04/13 02:36:03;;;;;;;4.60;2.25;;;;;;;19.59;53.96;102582.97;5399601;26;19995;-68
2024/04/13 02:38:30;;;;;;;4.80;2.53;;;;;;;19.47;53.70;102554.63;5397068;26;20007;-70
2024/04/13 02:40:59;;;;;;;3.90;2.25;;;;;;;19.56;53.88;102569.94;5399056;26;20020;-72
2024/04/13 02:43:26;;;;;;;5.47;2.15;;;;;;;19.62;53.87;102589.88;5399063;26;20002;-74
2024/04/13 02:45:51;;;;;;;4.40;2.25;;;;;;;19.56;53.80;102580.53;5398818;26;20429;-70
2024/04/13 02:48:18;;;;;;;3.80;1.90;;;;;;;19.52;53.72;102571.94;5399536;26;20030;-71
2024/04/13 02:50:44;;;;;;;5.03;2.42;;;;;;;19.59;54.05;102585.63;5395441;26;20457;-73
2024/04/13 02:53:09;;;;;;;5.10;2.22;;;;;;;19.55;53.98;102574.38;5398956;26;19996;-70
2024/04/13 02:55:34;;;;;;;3.58;1.90;;;;;;;19.58;53.99;102582.13;5394635;26;20334;-73
2024/04/13 02:58:00;;;;;;;5.32;2.40;;;;;;;19.58;53.72;102586.56;5398250;26;20041;-71
2024/04/13 03:00:25;;;;;;;4.85;2.63;;;;;;;19.43;54.04;102561.91;5399143;26;20010;-69
2024/04/13 03:02:51;;;;;;;4.80;2.30;;;;;;;19.37;53.92;102546.41;5396742;26;20003;-69
2024/04/13 03:05:16;;;;;;;3.80;2.30;;;;;;;19.49;53.67;102568.63;5396279;26;20023;-70
2024/04/13 03:07:41;;;;;;;5.32;2.17;;;;;;;19.49;53.80;102579.19;5399645;26;20551;-75
2024/04/13 03:10:06;;;;;;;5.13;1.85;;;;;;;19.37;53.65;102538.47;5402148;26;19995;-69
2024/04/13 03:12:32;;;;;;;4.65;2.05;;;;;;;19.48;53.59;102570.41;5401734;26;19995;-74
2024/04/13 03:14:58;;;;;;;5.40;2.10;;;;;;;19.57;53.64;102575.13;5401410;26;20009;-76
2024/04/13 03:17:24;;;;;;;5.95;2.47;;;;;;;19.48;53.59;102567.75;5401703;26;19987;-70
2024/04/13 03:19:51;;;;;;;4.88;2.28;;;;;;;19.45;53.81;102548.59;5401082;26;19995;-70
2024/04/13 03:22:16;;;;;;;4.63;2.15;;;;;;;19.50;53.86;102557.97;5401514;26;19992;-72
2024/04/13 03:24:41;;;;;;;4.35;2.17;;;;;;;19.47;53.56;102554.63;5401495;26;20014;-74
2024/04/13 03:27:09;;;;;;;4.18;2.22;;;;;;;19.47;53.53;102558.13;5401046;26;19998;-69
2024/04/13 03:29:34;;;;;;;6.32;2.53;;;;;;;19.56;53.79;102567.28;5401978;26;19988;-71
2024/04/13 03:31:59;;;;;;;3.67;2.03;;;;;;;19.51;53.79;102564.94;5459360;26;20010;-69
2024/04/13 03:34:26;;;;;;;4.55;2.30;;;;;;;19.51;53.51;102557.00;5400142;26;20374;-71
2024/04/13 03:36:51;;;;;;;4.03;2.25;;;;;;;19.53;53.78;102570.97;5400770;26;19991;-70
2024/04/13 03:39:17;;;;;;;5.72;2.65;;;;;;;19.46;53.74;102552.94;5401502;26;19992;-69
2024/04/13 03:41:43;;;;;;;4.38;2.10;;;;;;;19.45;53.87;102553.88;5400468;26;19996;-68
2024/04/13 03:44:09;;;;;;;4.07;2.25;;;;;;;19.50;53.78;102562.38;5401529;26;19992;-70
2024/04/13 03:46:34;;;;;;;4.68;2.35;;;;;;;19.50;53.52;102571.19;5401070;26;19992;-74
2024/04/13 03:49:00;;;;;;;4.40;2.00;;;;;;;19.52;53.33;102571.09;5395363;26;20013;-69
2024/04/13 03:51:25;;;;;;;4.50;2.35;;;;;;;19.48;53.64;102559.81;5399359;26;20051;-75
2024/04/13 03:53:50;;;;;;;5.78;2.45;;;;;;;19.52;53.69;102561.34;5400561;26;20003;-69
2024/04/13 03:56:16;;;;;;;4.45;2.30;;;;;;;19.44;53.50;102549.50;5398719;26;20009;-73
2024/04/13 03:58:41;;;;;;;4.35;2.30;;;;;;;19.53;53.30;102564.84;5400157;26;20906;-76
2024/04/13 04:01:07;;;;;;;5.43;2.33;;;;;;;19.45;53.73;102556.53;5400271;26;20462;-69
2024/04/13 04:03:32;;;;;;;4.28;2.72;;;;;;;19.38;53.25;102551.59;5399604;26;20701;-72
2024/04/13 04:05:57;;;;;;;5.28;2.05;;;;;;;19.50;53.38;102562.38;5400394;26;20025;-69
2024/04/13 04:08:22;;;;;;;5.43;2.20;;;;;;;19.40;53.61;102546.22;5400237;26;20002;-75
2024/04/13 04:10:48;;;;;;;5.13;2.30;;;;;;;19.47;53.42;102565.19;5399939;26;19995;-70
2024/04/13 04:13:13;;;;;;;5.22;2.63;;;;;;;19.48;53.38;102561.63;5400395;26;20484;-72
2024/04/13 04:15:40;;;;;;;4.75;2.20;;;;;;;19.36;53.59;102542.91;5399888;26;19995;-70
2024/04/13 04:18:06;;;;;;;4.72;2.58;;;;;;;19.34;53.43;102541.28;5400089;26;19996;-69
2024/04/13 04:20:32;;;;;;;3.97;2.25;;;;;;;19.42;53.42;102552.25;5398672;26;20441;-74
2024/04/13 04:22:57;;;;;;;4.10;2.30;;;;;;;19.51;53.37;102567.56;5399583;26;19992;-71
2024/04/13 04:25:24;;;;;;;4.78;2.30;;;;;;;19.47;53.21;102562.56;5398607;26;19995;-77
2024/04/13 04:27:49;;;;;;;4.35;2.25;;;;;;;19.48;53.09;102569.56;5399694;26;19995;-69
2024/04/13 04:30:15;;;;;;;4.90;2.70;;;;;;;19.40;53.25;102549.69;5399616;26;19992;-71
2024/04/13 04:32:41;;;;;;;3.80;2.00;;;;;;;19.48;53.26;102566.91;5400595;26;20459;-70
2024/04/13 04:35:06;;;;;;;4.70;2.33;;;;;;;19.42;53.34;102562.81;5399752;26;20097;-76
2024/04/13 04:37:32;;;;;;;5.40;2.30;;;;;;;19.39;53.51;102555.06;5399681;26;20061;-69
2024/04/13 04:39:58;;;;;;;4.35;2.20;;;;;;;19.43;53.26;102561.91;5399745;26;20019;-68
2024/04/13 04:42:24;;;;;;;4.53;2.30;;;;;;;19.43;53.29;102561.91;5399992;26;19991;-72
2024/04/13 04:44:50;;;;;;;3.70;2.00;;;;;;;19.47;53.58;102571.34;5399327;26;20006;-73
2024/04/13 04:47:16;;;;;;;4.15;2.30;;;;;;;19.35;53.61;102554.41;5399953;26;19991;-70
2024/04/13 04:49:41;;;;;;;5.07;2.38;;;;;;;19.37;53.21;102543.75;5399189;26;20318;-74
2024/04/13 04:52:07;;;;;;;4.97;2.35;;;;;;;19.37;53.33;102549.88;5399331;26;19991;-71
2024/04/13 04:54:32;;;;;;;5.05;2.60;;;;;;;19.47;53.37;102571.34;5398221;26;19999;-70
2024/04/13 04:56:57;;;;;;;4.28;2.25;;;;;;;19.46;53.41;102561.72;5399269;26;19995;-69
2024/04/13 04:59:23;;;;;;;4.53;2.50;;;;;;;19.38;53.03;102550.75;5397909;26;20642;-71
2024/04/13 05:01:48;;;;;;;4.40;2.03;;;;;;;19.43;52.96;102559.25;5397826;26;19999;-75
2024/04/13 05:04:14;;;;;;;4.15;2.50;;;;;;;19.40;53.11;102557.63;5398957;26;20434;-73
2024/04/13 05:06:39;;;;;;;5.47;2.42;;;;;;;19.32;52.80;102532.59;5399346;26;20728;-73
2024/04/13 05:09:06;;;;;;;4.60;2.38;;;;;;;19.43;53.14;102561.91;5399804;26;20006;-68
2024/04/13 05:11:33;;;;;;;4.30;2.40;;;;;;;19.30;53.29;102531.88;5397096;26;20003;-76
2024/04/13 05:13:58;;;;;;;4.53;2.28;;;;;;;19.44;52.97;102558.31;5399547;26;20016;-74
2024/04/13 05:16:24;;;;;;;4.18;2.30;;;;;;;19.26;52.94;102533.81;5399392;26;20010;-70
2024/04/13 05:18:49;;;;;;;5.35;2.47;;;;;;;19.30;53.24;102537.97;5398736;26;20542;-73
2024/04/13 05:21:14;;;;;;;4.05;2.33;;;;;;;19.35;52.92;102541.19;5399581;26;20503;-70
2024/04/13 05:23:39;;;;;;;4.38;2.25;;;;;;;19.34;53.25;102534.22;5399331;26;19999;-71
2024/04/13 05:26:05;;;;;;;4.63;2.47;;;;;;;19.27;52.70;102517.03;5396896;26;20000;-69
2024/04/13 05:28:30;;;;;;;4.18;2.38;;;;;;;19.09;53.11;102489.03;5399304;26;20436;-71
2024/04/13 05:30:56;;;;;;;4.53;2.10;;;;;;;19.41;53.07;102540.00;5398475;26;20010;-69
2024/04/13 05:33:26;;;;;;;5.55;2.38;;;;;;;19.37;52.91;102539.31;5396966;26;20007;-74
2024/04/13 05:35:51;;;;;;;4.57;2.50;;;;;;;19.42;52.95;102549.59;5398707;26;19995;-76
2024/04/13 05:38:17;;;;;;;4.00;2.22;;;;;;;19.26;53.18;102525.88;5399243;26;20344;-71
2024/04/13 05:40:43;;;;;;;3.92;2.25;;;;;;;19.40;52.80;102547.06;5398229;26;20075;-69
2024/04/13 05:43:08;;;;;;;3.90;2.08;;;;;;;19.24;52.99;102511.06;5394414;26;20045;-72
2024/04/13 05:45:36;;;;;;;4.00;2.10;;;;;;;19.33;53.03;102521.94;5395745;26;20003;-70
2024/04/13 05:48:02;;;;;;;3.85;2.05;;;;;;;19.36;52.78;102526.22;5396861;26;20072;-69
2024/04/13 05:50:28;;;;;;;4.63;2.40;;;;;;;19.32;52.85;102520.22;5391182;26;20477;-70
2024/04/13 05:52:54;;;;;;;3.70;1.90;;;;;;;19.32;53.11;102530.81;5396490;26;20008;-71
2024/04/13 05:55:20;;;;;;;4.68;2.40;;;;;;;19.36;53.41;102534.97;5398196;26;19991;-70
2024/04/13 05:57:45;;;;;;;4.22;2.05;;;;;;;19.25;53.38;102508.34;5398182;26;20456;-75
2024/04/13 06:00:11;;;;;;;5.47;2.42;;;;;;;19.20;53.35;102487.47;5398839;26;20345;-70
2024/04/13 06:02:37;;;;;;;4.32;2.15;;;;;;;19.28;53.47;102500.22;5396219;26;20014;-74
2024/04/13 06:05:04;;;;;;;4.28;2.47;;;;;;;19.27;53.61;102501.16;5398240;26;19999;-77
2024/04/13 06:07:29;;;;;;;5.05;2.30;;;;;;;19.33;53.85;102516.66;5399074;26;20097;-71
2024/04/13 06:09:54;;;;;;;4.32;2.20;;;;;;;19.38;53.94;102524.31;5397504;26;20399;-69
2024/04/13 06:12:20;;;;;;;3.55;2.08;;;;;;;19.46;54.10;102542.38;5397495;26;20425;-72
2024/04/13 06:14:51;;;;;;;4.07;2.17;;;;;;;19.46;54.00;102543.22;5395981;26;20039;-70
2024/04/13 06:17:18;;;;;;;3.67;2.20;;;;;;;19.35;54.17;102519.22;5396890;26;19999;-69
2024/04/13 06:19:44;;;;;;;4.43;2.40;;;;;;;19.31;53.97;102504.47;5394452;26;20003;-76
2024/04/13 06:22:09;;;;;;;5.07;2.25;;;;;;;19.35;54.27;102511.28;5395694;26;19992;-76
2024/04/13 06:24:35;;;;;;;4.65;2.45;;;;;;;19.32;54.04;102512.31;5394411;26;20003;-70
2024/04/13 06:27:01;;;;;;;5.50;2.50;;;;;;;19.45;54.26;102528.28;5395892;26;19995;-69
2024/04/13 06:29:26;;;;;;;4.55;2.05;;;;;;;19.46;54.35;102532.63;5397112;26;20452;-70
2024/04/13 06:31:52;;;;;;;5.00;2.28;;;;;;;19.34;54.13;102515.72;5398200;26;19988;-70
2024/04/13 06:34:17;;;;;;;4.15;2.28;;;;;;;19.50;54.36;102530.63;5397566;26;20506;-76
2024/04/13 06:36:42;;;;;;;6.72;2.30;;;;;;;19.50;54.37;102522.72;5397197;26;20010;-69
2024/04/13 06:39:08;;;;;;;4.72;2.20;;;;;;;19.42;54.71;102514.41;5397960;26;19991;-76
2024/04/13 06:41:33;;;;;;;5.03;2.28;;;;;;;19.13;54.68;102472.06;5396736;26;20012;-69
2024/04/13 06:44:03;;;;;;;5.22;2.22;;;;;;;19.43;54.87;102516.94;5399985;26;20074;-75
2024/04/13 06:46:30;;;;;;;5.45;2.20;;;;;;;19.49;54.79;102524.50;5401528;26;20071;-75
2024/04/13 06:48:55;;;;;;;5.15;2.30;;;;;;;19.51;54.77;102527.91;5401341;26;20065;-71
2024/04/13 06:51:21;;;;;;;3.75;1.88;;;;;;;19.50;54.95;102528.00;5399053;26;20000;-72
2024/04/13 06:53:46;;;;;;;4.78;2.10;;;;;;;19.43;55.03;102511.66;5401275;26;20003;-68
2024/04/13 06:56:13;;;;;;;4.68;2.40;;;;;;;19.49;54.92;102513.94;5400805;26;20065;-71
2024/04/13 06:58:38;;;;;;;4.85;2.40;;;;;;;19.42;54.94;102493.25;5400398;26;19992;-71
2024/04/13 07:01:04;;;;;;;6.32;2.35;;;;;;;19.54;54.77;102506.56;5399291;26;19992;-70
2024/04/13 07:03:29;;;;;;;5.43;2.58;;;;;;;19.47;55.01;102496.44;5400648;26;20024;-69
2024/04/13 07:05:59;;;;;;;6.10;2.45;;;;;;;19.56;54.73;102509.13;5398772;26;20072;-70
2024/04/13 07:08:26;;;;;;;4.38;2.20;;;;;;;19.49;54.76;102511.28;5401211;26;20060;-70
2024/04/13 07:10:52;;;;;;;4.93;2.13;;;;;;;19.49;55.02;102494.59;5400343;26;20077;-68
2024/04/13 07:13:18;;;;;;;4.28;2.10;;;;;;;19.52;54.87;102503.19;5401578;26;20000;-68
2024/04/13 07:15:43;;;;;;;6.35;2.10;;;;;;;19.56;54.79;102517.88;5400112;26;20040;-70
2024/04/13 07:18:09;;;;;;;5.05;2.00;;;;;;;19.53;54.82;102504.84;5400699;26;20002;-68
2024/04/13 07:20:35;;;;;;;4.35;2.25;;;;;;;19.51;55.16;102497.97;5400607;26;20033;-73
2024/04/13 07:23:00;;;;;;;6.78;2.70;;;;;;;19.55;55.28;102504.75;5400612;26;20329;-70
2024/04/13 07:25:26;;;;;;;5.22;2.35;;;;;;;19.51;55.26;102496.19;5398747;26;20006;-68
2024/04/13 07:27:51;;;;;;;4.85;2.20;;;;;;;19.56;55.13;102498.53;5400386;26;20447;-68
2024/04/13 07:30:17;;;;;;;5.45;2.30;;;;;;;19.53;55.45;102494.28;5400715;26;20007;-67
2024/04/13 07:32:42;;;;;;;6.17;2.27;;;;;;;19.59;55.33;102495.72;5397847;26;20506;-72
2024/04/13 07:35:07;;;;;;;5.82;2.13;;;;;;;19.60;55.21;102494.78;5401054;26;20206;-69
2024/04/13 07:37:32;;;;;;;4.60;2.30;;;;;;;19.54;55.16;102476.63;5400547;26;19995;-72
2024/04/13 07:39:58;;;;;;;6.80;2.40;;;;;;;19.56;55.52;102482.66;5398836;26;20003;-69
2024/04/13 07:42:32;;;;;;;4.57;2.30;;;;;;;19.66;55.44;102491.75;5400549;26;20003;-75
2024/04/13 07:44:57;;;;;;;;;;;;;;;19.64;55.34;102496.28;5399867;26;20004;-69
2024/04/13 07:47:23;;;;;;;5.80;2.10;;;;;;;19.49;55.24;102463.69;5399894;26;19937;-70
2024/04/13 07:49:48;;;;;;;4.03;2.33;;;;;;;19.68;55.44;102486.38;5400645;26;20543;-69
2024/04/13 07:52:13;;;;;;;5.10;2.30;;;;;;;19.64;55.55;102480.41;5400343;26;20341;-70
2024/04/13 07:54:39;;;;;;;7.13;2.50;;;;;;;19.52;55.57;102452.09;5400205;26;20361;-70
2024/04/13 07:57:04;;;;;;;5.10;2.20;;;;;;;19.65;55.51;102468.03;5399529;26;19995;-73
2024/04/13 07:59:29;;;;;;;4.55;2.22;;;;;;;19.64;55.61;102466.34;5400599;26;20045;-70
2024/04/13 08:01:55;;;;;;;5.38;2.05;;;;;;;19.55;55.50;102454.53;5397801;26;20038;-70
2024/04/13 08:04:20;;;;;;;4.25;1.90;;;;;;;19.57;55.55;102458.78;5398097;26;19999;-67
2024/04/13 08:06:45;;;;;;;5.30;1.80;;;;;;;19.63;55.84;102469.91;5347937;25;20334;-69
2024/04/13 08:09:11;;;;;;;4.10;2.13;;;;;;;19.63;55.71;102464.63;5400310;26;20011;-70
2024/04/13 08:11:36;;;;;;;5.43;1.92;;;;;;;19.70;55.87;102479.19;5399944;26;20033;-68
2024/04/13 08:14:04;;;;;;;4.28;2.00;;;;;;;19.63;55.93;102454.03;5398386;26;20000;-72
2024/04/13 08:16:30;;;;;;;5.35;2.20;;;;;;;19.34;56.15;102417.91;5397460;26;20098;-69
2024/04/13 08:18:55;;;;;;;4.57;2.13;;;;;;;19.62;55.54;102449.72;5400242;26;20549;-69
2024/04/13 08:21:20;;;;;;;4.18;2.10;;;;;;;19.65;55.95;102460.09;5399874;26;20011;-70
2024/04/13 08:23:46;;;;;;;5.97;2.20;;;;;;;19.59;56.07;102450.75;5398116;26;20014;-69
2024/04/13 08:26:11;;;;;;;5.45;2.17;;;;;;;19.58;55.93;102449.03;5400306;26;20406;-68
2024/04/13 08:28:36;;;;;;;4.75;1.88;;;;;;;19.70;56.02;102460.66;5399662;26;20048;-69
2024/04/13 08:31:05;;;;;;;4.00;1.90;;;;;;;19.61;55.90;102446.22;5399430;26;20665;-69
2024/04/13 08:33:30;;;;;;;4.85;2.25;;;;;;;19.70;55.66;102453.56;5399904;26;20004;-71
2024/04/13 08:36:06;;;;;;;5.82;2.17;;;;;;;19.63;56.22;102449.63;5399509;26;20006;-73
2024/04/13 08:38:32;;;;;;;4.75;2.17;;;;;;;19.57;56.09;102439.44;5400314;26;20540;-70
2024/04/13 08:41:02;;;;;;;4.60;2.35;;;;;;;19.65;56.18;102447.72;5394023;26;20006;-76
2024/04/13 08:43:27;;;;;;;6.40;2.20;;;;;;;19.75;56.09;102454.13;5398096;26;20007;-76
2024/04/13 08:45:53;;;;;;;3.92;1.90;;;;;;;19.78;55.93;102447.84;5399614;26;19991;-76
2024/04/13 08:48:19;;;;;;;6.05;2.33;;;;;;;19.63;55.94;102415.25;5398314;26;20637;-71
2024/04/13 08:50:45;;;;;;;5.00;2.08;;;;;;;19.79;56.13;102438.09;5397863;26;20019;-74
2024/04/13 08:53:11;;;;;;;4.65;1.95;;;;;;;19.75;55.76;102427.66;5413371;26;19995;-71
2024/04/13 08:55:38;;;;;;;5.65;1.90;;;;;;;19.81;55.80;102438.88;5398381;26;20536;-75
2024/04/13 08:58:04;;;;;;;4.75;2.10;;;;;;;19.74;55.60;102428.63;5397708;26;19995;-72
2024/04/13 09:00:31;;;;;;;4.30;1.85;;;;;;;19.76;55.71;102433.88;5397766;26;20006;-71
2024/04/13 09:02:57;;;;;;;4.32;1.83;;;;;;;19.77;55.55;102427.59;5396603;26;20011;-73
2024/04/13 09:05:25;;;;;;;5.18;2.47;;;;;;;19.81;55.73;102431.78;5401543;26;20326;-78
2024/04/13 09:07:51;;;;;;;5.25;1.90;;;;;;;19.80;55.91;102416.00;5399713;26;20045;-72
2024/04/13 09:10:18;;;;;;;6.60;2.08;;;;;;;19.75;55.47;102397.72;5398490;26;21400;-78
2024/04/13 09:12:44;;;;;;;4.63;1.80;;;;;;;19.81;55.57;102410.59;5397942;26;19999;-75
2024/04/13 09:15:09;;;;;;;7.07;1.83;;;;;;;19.83;55.62;102411.34;5398912;26;20073;-72
2024/04/13 09:17:35;;;;;;;4.15;1.73;;;;;;;19.78;55.55;102407.31;5396451;26;20749;-72
2024/04/13 09:20:08;;;;;;;5.70;1.90;;;;;;;19.87;55.25;102418.16;5397068;26;20445;-72
2024/04/13 09:22:38;;;;;;;5.75;2.22;;;;;;;19.80;55.41;102400.13;5397777;26;20003;-71
2024/04/13 09:25:04;;;;;;;6.47;1.98;;;;;;;19.80;55.70;102393.03;5398564;26;20914;-72
2024/04/13 09:27:31;;;;;;;4.30;1.70;;;;;;;19.84;55.60;102383.13;5398349;26;20030;-78
2024/04/13 09:30:09;;;;;;;5.32;1.92;;;;;;;19.94;55.54;102402.72;5397873;26;20000;-71
2024/04/13 09:32:35;;;;;;;6.93;2.50;;;;;;;19.93;55.42;102401.88;5398273;26;20023;-70
2024/04/13 09:35:27;;;;;;;4.63;1.92;;;;;;;19.92;55.06;102394.88;5397445;26;20006;-70
2024/04/13 09:38:03;;;;;;;4.97;1.83;;;;;;;19.91;55.20;102394.97;5390570;26;19991;-70
2024/04/13 09:40:31;;;;;;;3.58;1.75;;;;;;;19.73;55.42;102352.88;5397662;26;20249;-71
2024/04/13 09:42:58;;;;;;;3.75;1.73;;;;;;;19.81;55.03;102370.09;5397258;26;19999;-73
2024/04/13 09:45:24;;;;;;;3.85;1.50;;;;;;;19.83;55.15;102370.81;5398997;26;19991;-74
2024/04/13 09:47:51;;;;;;;3.85;1.77;;;;;;;19.82;55.03;102350.59;5399000;26;20064;-65
2024/04/13 09:50:17;;;;;;;5.15;2.13;;;;;;;19.89;55.17;102363.34;5398829;26;20696;-73
2024/04/13 09:52:43;;;;;;;4.32;1.98;;;;;;;19.87;55.69;102356.47;5396750;26;20021;-70
2024/04/13 09:55:09;;;;;;;4.53;1.70;;;;;;;19.96;55.73;102362.94;5397779;26;19995;-71
2024/04/13 09:57:35;;;;;;;3.40;1.60;;;;;;;19.80;55.67;102328.69;5398460;26;20000;-72
2024/04/13 10:00:02;;;;;;;4.93;1.90;;;;;;;19.98;55.39;102356.59;5399774;26;20757;-73
2024/04/13 10:02:28;;;;;;;3.88;1.60;;;;;;;19.85;55.62;102338.03;5396016;26;19999;-71
2024/04/13 10:04:54;;;;;;;4.10;1.90;;;;;;;19.88;55.60;102329.03;5394326;26;20007;-72
2024/04/13 10:07:23;;;;;;;4.07;2.20;;;;;;;20.00;55.66;102352.06;5394932;26;20010;-74
2024/04/13 10:09:55;;;;;;;4.40;1.70;;;;;;;20.01;55.50;102350.25;5397076;26;20002;-71
2024/04/13 10:12:24;;;;;;;5.47;1.85;;;;;;;20.01;55.37;102343.19;5397099;26;20283;-69
2024/04/13 10:14:51;;;;;;;4.80;1.90;;;;;;;19.92;55.49;102320.81;5396408;26;20362;-69
2024/04/13 10:17:18;;;;;;;3.63;1.67;;;;;;;19.94;55.08;102326.00;5394097;26;19992;-74
2024/04/13 10:19:45;;;;;;;3.65;1.60;;;;;;;20.01;55.51;102335.25;5394460;26;20003;-71
2024/04/13 10:22:13;;;;;;;5.43;2.38;;;;;;;20.05;55.59;102330.59;5396557;26;19991;-71
2024/04/13 10:24:45;;;;;;;5.43;1.98;;;;;;;19.99;55.62;102318.59;5394849;26;19996;-74
2024/04/13 10:27:12;;;;;;;4.32;1.75;;;;;;;20.04;55.31;102340.31;5396941;26;19992;-69
2024/04/13 10:29:40;;;;;;;4.53;1.67;;;;;;;19.95;55.39;102317.13;5396123;26;20070;-73
2024/04/13 10:32:20;;;;;;;4.10;1.60;;;;;;;20.05;55.66;102328.78;5397644;26;20338;-73
2024/04/13 10:34:46;;;;;;;4.47;1.83;;;;;;;19.93;55.82;102303.13;5396439;26;20000;-71
2024/04/13 10:37:30;;;;;;;4.22;1.80;;;;;;;20.05;56.03;102325.28;5396043;26;20006;-71
2024/04/13 10:39:56;;;;;;;5.23;2.10;;;;;;;19.89;55.77;102288.41;5398031;26;20115;-70
2024/04/13 10:42:42;;;;;;;4.95;1.90;;;;;;;20.04;55.97;102308.53;5395719;26;20455;-71
2024/04/13 10:45:15;;;;;;;4.35;1.60;;;;;;;19.93;56.08;102297.81;5396778;26;20004;-77
2024/04/13 10:47:43;;;;;;;4.97;1.90;;;;;;;19.92;55.85;102285.56;5395295;26;20045;-74
2024/04/13 10:50:15;;;;;;;4.45;1.70;;;;;;;20.02;55.79;102294.56;5394941;26;19988;-71
2024/04/13 10:52:42;;;;;;;4.43;1.80;;;;;;;20.07;55.89;102302.22;5395937;26;19992;-72
2024/04/13 10:55:11;;;;;;;5.30;2.15;;;;;;;20.08;55.87;102290.69;5396478;26;19992;-72
2024/04/13 10:57:39;;;;;;;4.63;2.03;;;;;;;19.93;55.89;102274.00;5395644;26;19988;-77
2024/04/13 11:00:05;;;;;;;6.18;1.90;;;;;;;19.98;55.77;102277.22;5396256;26;20037;-72
2024/04/13 11:02:30;;;;;;;4.20;2.00;;;;;;;19.98;55.84;102279.00;5395647;26;20353;-74
2024/04/13 11:04:56;;;;;;;5.38;2.10;;;;;;;20.00;55.94;102267.38;5395191;26;20007;-76
2024/04/13 11:07:21;;;;;;;4.82;2.10;;;;;;;20.05;55.59;102281.13;5396277;26;20041;-73
2024/04/13 11:09:47;;;;;;;5.22;2.10;;;;;;;20.09;55.49;102279.13;5396316;26;20669;-73
2024/04/13 11:12:13;;;;;;;4.05;1.85;;;;;;;20.00;55.63;102261.25;5396442;26;20069;-71
2024/04/13 11:14:39;;;;;;;5.47;1.65;;;;;;;19.94;55.48;102251.91;5396362;26;20028;-71
2024/04/13 11:17:05;;;;;;;5.90;1.90;;;;;;;20.01;55.52;102254.97;5395546;26;20007;-71
2024/04/13 11:19:31;;;;;;;4.35;1.67;;;;;;;20.08;55.54;102261.56;5396429;26;20006;-76
2024/04/13 11:22:01;;;;;;;4.35;1.85;;;;;;;20.19;55.20;102268.78;5395525;26;20004;-73